logo
Rechercher aéroport 
image banner adimage banner adimage banner ad
image banner ad

LSZJ - Courtelary

Situé à Biel, Switzerland

ICAO - LSZJ, IATA -

Données fournies par Airmate  

Information générale

Coordonnées: N47°11'0" E7°5'27"
Élévation : 2247 feet MSL.
Variation magnétique : 2.591° East
Évalué:
Voir évaluations:
[VIEW]
Voir autres Aéroports à Berne

Données opérationnelles

Special qualification required
Heure actuelle UTC:
Heure actuelle locale:
Météo à : LSZG - Grenchen ( 25 km )
METAR: LSZG 280150Z AUTO 25006KT 9999 NCD 12/08 Q1021
TAF: TAF LSZG 271425Z 2715/2724 VRB01KT 9999 VCSH FEW012 SCT024 BKN035 TEMPO 2715/2721 SHRA SCT030TCU PROB30 TEMPO 2715/2719 28015G25KT 4500 TSRA FEW030CB
Voir NOTAMs / SUP AIP / TFR affectant cet aéroport [VIEW]
Fréquences de communication: [VIEW]

Pistes:

Identifiant RWYQFULongueur (ft)Largeur (ft)SurfaceLDA (ft)
0664°183798GRASS
24244°183798GRASS

Coordonnées de l'aéroport

Adresse: Biel Switzerland

Autres services d'aviation

Clubs d'aviation (sans but lucratif)

Groupe De Vol À Voile Courtelary

Groupe De Vol À Voile Courtelary
patrick.picard@hotmail.com+41791056895
+41791056895

Vue satellite de LSZJ